Weather at Police Pistol Range Heliport

Public forecast

Using degrees Fahrenheit for public forecast. Weather courtesy of forecast.io.

Closest aviation weather report (METAR) to Police Pistol Range Heliport

Closest report is San Francisco International Airport, 8.4 nm (15.6 km) SE.

2024/05/26 07:56 (retrieved 50 minutes ago)

KSFO 260756Z VRB06KT 10SM BKN016 12/07 A3005 RMK AO2 SLP177 T01170072 401670117

Closest aviation forecast (TAF) to Police Pistol Range Heliport

Closest forecast is San Francisco International Airport, 8.4 nm (15.6 km) SE.

2024/05/26 06:36 (retrieved 2 hours ago)

TAF KSFO 260533Z 2606/2712 27012KT P6SM SCT015 FM260800 26008KT P6SM OVC010 FM261700 28010KT P6SM BKN012 FM262100 29015G20KT P6SM FEW012 FM270800 26010KT P6SM BKN010